Time;durP1;ratioP1;P1;durP2;ratioP2;P2;SDS_P1;SDS_P2;PMS_P1;PMS_P2;Temp;Humidity;BMP_temperature;BMP_pressure;BME280_temperature;BME280_humidity;BME280_pressure;Samples;Min_cycle;Max_cycle;Signal;HPM_P1;HPM_P2
2022/11/11 00:00:59;;;;;;;8.48;5.55;;;12.30;99.90;;;;;;4994710;28;20073;-78
2022/11/11 00:03:24;;;;;;;9.43;6.13;;;12.30;99.90;;;;;;4993262;28;20050;-78
2022/11/11 00:05:50;;;;;;;14.63;6.20;;;12.30;99.90;;;;;;4993258;28;20065;-78
2022/11/11 00:08:16;;;;;;;9.50;5.50;;;12.30;99.90;;;;;;4994175;28;20053;-78
2022/11/11 00:10:41;;;;;;;9.90;6.38;;;12.20;99.90;;;;;;4994089;28;20097;-78
2022/11/11 00:13:07;;;;;;;8.13;5.75;;;12.20;99.90;;;;;;4994140;28;20050;-78
2022/11/11 00:15:37;;;;;;;9.32;6.10;;;12.30;99.90;;;;;;4993558;28;20050;-77
2022/11/11 00:26:16;;;;;;;12.57;6.47;;;12.30;99.90;;;;;;4993274;28;20054;-79
2022/11/11 00:28:42;;;;;;;8.88;5.50;;;12.30;99.90;;;;;;4994785;28;20528;-78
2022/11/11 00:31:10;;;;;;;10.00;5.20;;;12.30;99.90;;;;;;4994164;28;20408;-79
2022/11/11 00:33:37;;;;;;;10.13;6.22;;;12.30;99.90;;;;;;4993777;28;20042;-78
2022/11/11 00:36:03;;;;;;;8.20;6.45;;;12.30;99.90;;;;;;4992899;28;20050;-78
2022/11/11 00:38:44;;;;;;;12.00;7.28;;;12.30;99.90;;;;;;4993763;28;20049;-78
2022/11/11 00:41:11;;;;;;;10.68;6.10;;;12.40;99.90;;;;;;4978780;28;20184;-78
2022/11/11 00:43:37;;;;;;;7.95;6.30;;;12.30;99.90;;;;;;4992478;28;20112;-78
2022/11/11 00:51:31;;;;;;;12.43;6.45;;;12.30;99.90;;;;;;4992680;28;20152;-77
2022/11/11 00:53:56;;;;;;;10.93;6.78;;;12.30;99.90;;;;;;4993490;28;20050;-79
2022/11/11 00:56:22;;;;;;;14.57;7.40;;;12.30;99.90;;;;;;4993115;28;20042;-78
2022/11/11 00:58:48;;;;;;;12.20;6.40;;;12.30;99.90;;;;;;4993320;28;20445;-79
2022/11/11 01:01:15;;;;;;;11.60;6.18;;;12.20;99.90;;;;;;4993121;28;20038;-78
2022/11/11 01:03:40;;;;;;;13.25;7.03;;;12.20;99.90;;;;;;4993151;28;20124;-78
2022/11/11 01:06:06;;;;;;;9.13;6.40;;;12.20;99.90;;;;;;5008510;28;20462;-79
2022/11/11 01:08:32;;;;;;;9.57;6.78;;;12.30;99.90;;;;;;4993729;28;20077;-79
2022/11/11 01:10:58;;;;;;;13.05;7.35;;;12.20;99.90;;;;;;4991838;28;20090;-77
2022/11/11 01:13:29;;;;;;;8.65;6.70;;;12.20;99.90;;;;;;4993473;28;20050;-78
2022/11/11 01:16:04;;;;;;;12.40;6.50;;;12.30;99.90;;;;;;4992310;28;20061;-80
2022/11/11 01:18:30;;;;;;;11.88;7.03;;;12.20;99.90;;;;;;4992449;28;20050;-78
2022/11/11 01:21:12;;;;;;;13.02;7.47;;;12.30;99.90;;;;;;4993312;28;20054;-78
2022/11/11 01:23:40;;;;;;;11.25;7.50;;;12.30;99.90;;;;;;4976386;28;20062;-78
2022/11/11 01:26:11;;;;;;;14.82;7.03;;;12.20;99.90;;;;;;4993364;28;20054;-79
2022/11/11 01:28:37;;;;;;;12.98;7.07;;;12.20;99.90;;;;;;4993008;28;20050;-80
2022/11/11 01:31:06;;;;;;;12.70;7.22;;;12.20;99.90;;;;;;4993537;28;20053;-77
2022/11/11 01:33:32;;;;;;;10.75;6.82;;;12.20;99.90;;;;;;4992762;28;20435;-77
2022/11/11 01:36:09;;;;;;;11.85;6.53;;;12.20;99.90;;;;;;4993190;28;20057;-80
2022/11/11 01:38:35;;;;;;;9.55;6.45;;;12.20;99.90;;;;;;4992980;28;20039;-80
2022/11/11 01:41:31;;;;;;;9.02;7.07;;;12.20;99.90;;;;;;4992546;28;20125;-77
2022/11/11 01:43:48;;;;;;;11.65;7.18;;;12.10;99.90;;;;;;4991603;28;20129;-79
2022/11/11 01:46:36;;;;;;;11.63;6.75;;;12.10;99.90;;;;;;4992354;28;20078;-77
2022/11/11 01:49:30;;;;;;;10.82;7.20;;;12.10;99.90;;;;;;4991813;28;20108;-80
2022/11/11 01:52:07;;;;;;;12.90;7.10;;;12.10;99.90;;;;;;4993358;28;20046;-80
2022/11/11 01:54:49;;;;;;;14.10;6.78;;;12.10;99.90;;;;;;4992906;28;20065;-78
2022/11/11 01:57:26;;;;;;;7.00;6.20;;;12.10;99.90;;;;;;4992910;28;20134;-79
2022/11/11 01:59:59;;;;;;;9.60;7.10;;;12.10;99.90;;;;;;4992055;28;20058;-79
2022/11/11 02:02:37;;;;;;;8.63;7.00;;;12.10;99.90;;;;;;4991555;28;20126;-79
2022/11/11 02:07:49;;;;;;;11.13;6.68;;;12.10;99.90;;;;;;4993414;28;20050;-79
2022/11/11 02:10:20;;;;;;;10.02;7.22;;;12.10;99.90;;;;;;4995171;28;20502;-78
2022/11/11 02:15:31;;;;;;;14.88;8.15;;;12.20;99.90;;;;;;4995497;28;20108;-78
2022/11/11 02:17:58;;;;;;;16.67;8.50;;;12.10;99.90;;;;;;4996065;28;20396;-78
2022/11/11 02:20:26;;;;;;;11.23;7.43;;;12.10;99.90;;;;;;4996424;28;20054;-79
2022/11/11 02:23:08;;;;;;;11.27;7.60;;;12.10;99.90;;;;;;4996289;28;20054;-79
2022/11/11 02:25:37;;;;;;;16.45;8.20;;;12.10;99.90;;;;;;4996698;28;20081;-80
2022/11/11 02:28:05;;;;;;;16.30;10.23;;;12.10;99.90;;;;;;4996707;28;20042;-79
2022/11/11 02:30:31;;;;;;;11.35;7.72;;;12.10;99.90;;;;;;4979503;28;20062;-79
2022/11/11 02:32:57;;;;;;;14.30;8.20;;;12.00;99.90;;;;;;4996333;28;20107;-79
2022/11/11 02:35:39;;;;;;;16.50;9.55;;;12.00;99.90;;;;;;4995733;28;20410;-80
2022/11/11 02:38:10;;;;;;;12.73;9.75;;;12.00;99.90;;;;;;4979135;28;20054;-79
2022/11/11 02:43:26;;;;;;;15.38;9.60;;;11.90;99.90;;;;;;4995319;28;20133;-80
2022/11/11 02:45:52;;;;;;;16.13;10.25;;;11.90;99.90;;;;;;4979321;28;20117;-79
2022/11/11 02:48:18;;;;;;;13.57;9.43;;;11.90;99.90;;;;;;4994844;28;20437;-79
2022/11/11 02:50:43;;;;;;;13.75;10.57;;;11.90;99.90;;;;;;4996272;28;20356;-79
2022/11/11 02:53:09;;;;;;;13.00;9.90;;;11.90;99.90;;;;;;4995771;28;20095;-78
2022/11/11 02:55:35;;;;;;;16.42;10.95;;;11.90;99.90;;;;;;4995997;28;20126;-79
2022/11/11 02:58:01;;;;;;;16.02;10.80;;;11.80;99.90;;;;;;4995663;28;20092;-79
2022/11/11 03:00:26;;;;;;;14.15;10.13;;;11.80;99.90;;;;;;4996183;28;20042;-79
2022/11/11 03:02:52;;;;;;;18.60;11.65;;;11.80;99.90;;;;;;4994386;28;20484;-80
2022/11/11 03:05:18;;;;;;;19.00;11.13;;;11.80;99.90;;;;;;4995743;28;20057;-78
2022/11/11 03:07:44;;;;;;;15.52;10.77;;;11.80;99.90;;;;;;4994834;28;20470;-79
2022/11/11 03:10:10;;;;;;;20.73;11.68;;;11.70;99.90;;;;;;4995854;28;20561;-78
2022/11/11 03:12:35;;;;;;;14.85;10.38;;;11.50;99.90;;;;;;4995485;28;20063;-79
2022/11/11 03:15:01;;;;;;;16.30;12.23;;;11.80;99.90;;;;;;4995891;28;20049;-78
2022/11/11 03:17:39;;;;;;;22.25;12.40;;;11.80;99.90;;;;;;4995406;28;20518;-79
2022/11/11 03:23:12;;;;;;;18.83;11.80;;;11.80;99.90;;;;;;4994041;28;20061;-79
2022/11/11 03:25:44;;;;;;;14.65;12.10;;;11.70;99.90;;;;;;4995710;28;20141;-78
2022/11/11 03:28:18;;;;;;;17.05;11.70;;;11.70;99.90;;;;;;4995300;28;20042;-79
2022/11/11 03:30:48;;;;;;;18.85;11.32;;;11.70;99.90;;;;;;4995267;28;20042;-79
2022/11/11 03:33:15;;;;;;;17.58;13.38;;;11.70;99.90;;;;;;4995108;28;20047;-79
2022/11/11 03:35:41;;;;;;;18.92;13.10;;;11.70;99.90;;;;;;4995440;28;20050;-79
2022/11/11 03:38:23;;;;;;;18.95;12.80;;;11.70;99.90;;;;;;4993501;28;20470;-79
2022/11/11 03:40:55;;;;;;;19.90;14.05;;;11.70;99.90;;;;;;4994135;28;20064;-79
2022/11/11 03:43:22;;;;;;;19.40;13.15;;;11.70;99.90;;;;;;4994947;28;20042;-79
2022/11/11 03:45:49;;;;;;;22.75;13.07;;;11.70;99.90;;;;;;4993965;28;20141;-79
2022/11/11 03:48:15;;;;;;;22.83;14.20;;;11.70;99.90;;;;;;4994795;28;20054;-79
2022/11/11 03:50:41;;;;;;;20.00;12.57;;;11.70;99.90;;;;;;4978104;28;20432;-78
2022/11/11 03:53:07;;;;;;;17.92;12.60;;;11.70;99.90;;;;;;4994373;28;20046;-79
2022/11/11 03:55:33;;;;;;;17.75;13.93;;;11.70;99.90;;;;;;4995015;28;20047;-79
2022/11/11 03:57:59;;;;;;;19.75;13.63;;;11.70;99.90;;;;;;4994801;28;20077;-79
2022/11/11 04:00:27;;;;;;;21.50;15.05;;;11.70;99.90;;;;;;4994256;28;20525;-79
2022/11/11 04:11:36;;;;;;;22.10;13.52;;;11.70;99.90;;;;;;4979751;28;20493;-79
2022/11/11 04:16:50;;;;;;;19.10;13.77;;;11.70;99.90;;;;;;4993859;28;20068;-79
2022/11/11 04:22:00;;;;;;;22.55;14.70;;;11.70;99.90;;;;;;4993176;28;20066;-79
2022/11/11 04:27:12;;;;;;;21.33;15.00;;;11.60;99.90;;;;;;4994400;28;20469;-79
2022/11/11 04:29:38;;;;;;;19.60;13.85;;;11.60;99.90;;;;;;4992974;28;20133;-79
2022/11/11 04:34:58;;;;;;;20.38;14.68;;;11.60;99.90;;;;;;4993138;28;20050;-80
2022/11/11 04:37:25;;;;;;;20.25;14.85;;;11.60;99.90;;;;;;4993904;28;20062;-80
2022/11/11 04:42:38;;;;;;;24.80;15.43;;;11.60;99.90;;;;;;4992816;28;20053;-79
2022/11/11 04:48:09;;;;;;;21.30;14.65;;;11.60;99.90;;;;;;4993334;28;20481;-80
2022/11/11 04:50:36;;;;;;;24.80;15.15;;;11.60;99.90;;;;;;4993007;28;20382;-80
2022/11/11 04:53:05;;;;;;;24.85;15.05;;;11.50;99.90;;;;;;4993625;28;20042;-79
2022/11/11 04:58:17;;;;;;;23.35;15.10;;;11.60;99.90;;;;;;4992455;28;20058;-81
2022/11/11 05:00:43;;;;;;;22.77;15.68;;;11.60;99.90;;;;;;4993013;28;20066;-79
2022/11/11 05:03:15;;;;;;;22.67;14.63;;;11.60;99.90;;;;;;4993466;28;20138;-79
2022/11/11 05:08:57;;;;;;;24.30;14.88;;;11.50;99.90;;;;;;4992787;28;20054;-79
2022/11/11 05:11:35;;;;;;;26.50;16.65;;;11.50;99.90;;;;;;4992057;28;20470;-79
2022/11/11 05:22:38;;;;;;;21.67;14.77;;;11.50;99.90;;;;;;4992262;28;20109;-79
2022/11/11 05:27:49;;;;;;;23.73;16.80;;;11.50;99.90;;;;;;4993550;28;20058;-80
2022/11/11 05:30:16;;;;;;;28.38;16.00;;;11.60;99.90;;;;;;4992096;28;20058;-79
2022/11/11 05:32:42;;;;;;;25.92;16.38;;;11.50;99.90;;;;;;4992101;28;20117;-80
2022/11/11 05:35:08;;;;;;;28.33;15.15;;;11.50;99.90;;;;;;4992089;28;20108;-80
2022/11/11 05:37:34;;;;;;;24.80;16.35;;;11.50;99.90;;;;;;4993033;28;20050;-79
2022/11/11 05:40:00;;;;;;;26.67;15.95;;;11.50;99.90;;;;;;4992960;28;20149;-79
2022/11/11 05:42:26;;;;;;;24.38;15.43;;;11.50;99.90;;;;;;4993011;28;20046;-79
2022/11/11 05:44:52;;;;;;;22.65;15.27;;;11.50;99.90;;;;;;4996455;28;20492;-78
2022/11/11 05:47:18;;;;;;;22.35;15.73;;;11.50;99.90;;;;;;4996301;28;20120;-79
2022/11/11 05:49:44;;;;;;;30.80;16.85;;;11.50;99.90;;;;;;4997072;28;20042;-79
2022/11/11 05:52:12;;;;;;;22.92;14.70;;;11.50;99.90;;;;;;4979602;28;20462;-80
2022/11/11 05:54:37;;;;;;;25.20;15.38;;;11.50;99.90;;;;;;4996956;28;20128;-79
2022/11/11 05:57:03;;;;;;;27.20;15.02;;;11.60;99.90;;;;;;4995955;28;20478;-79
2022/11/11 05:59:29;;;;;;;21.17;14.45;;;11.60;99.90;;;;;;4996711;28;20050;-80
2022/11/11 06:01:55;;;;;;;21.15;14.45;;;11.60;99.90;;;;;;4995840;28;20113;-79
2022/11/11 06:04:21;;;;;;;18.52;14.13;;;11.70;99.90;;;;;;4996343;28;20527;-80
2022/11/11 06:06:47;;;;;;;26.42;16.45;;;11.70;99.90;;;;;;4995311;28;20050;-79
2022/11/11 06:09:12;;;;;;;24.08;16.42;;;11.70;99.90;;;;;;4996809;28;20053;-80
2022/11/11 06:11:38;;;;;;;23.50;15.55;;;11.70;99.90;;;;;;4995014;28;20093;-80
2022/11/11 06:14:04;;;;;;;21.40;14.77;;;11.70;99.90;;;;;;4996346;28;20050;-80
2022/11/11 06:16:30;;;;;;;22.02;15.88;;;11.70;99.90;;;;;;4995948;28;20046;-80
2022/11/11 06:18:56;;;;;;;24.98;16.95;;;11.70;99.90;;;;;;4996308;28;20046;-79
2022/11/11 06:21:21;;;;;;;26.48;15.82;;;11.70;99.90;;;;;;4994977;28;20060;-79
2022/11/11 06:23:47;;;;;;;22.08;14.45;;;11.70;99.90;;;;;;4996476;28;20057;-80
2022/11/11 06:26:13;;;;;;;23.30;16.02;;;11.70;99.90;;;;;;4996704;28;20046;-80
2022/11/11 06:28:41;;;;;;;21.83;16.17;;;11.70;99.90;;;;;;4995444;28;20408;-79
2022/11/11 06:31:08;;;;;;;25.05;15.40;;;11.70;99.90;;;;;;4996043;28;20046;-79
2022/11/11 06:33:35;;;;;;;21.50;14.25;;;11.70;99.90;;;;;;4995425;28;20061;-80
2022/11/11 06:36:01;;;;;;;21.73;16.05;;;11.60;99.90;;;;;;4995718;28;20046;-79
2022/11/11 06:38:27;;;;;;;20.08;14.95;;;11.70;99.90;;;;;;4996363;28;20144;-80
2022/11/11 06:40:53;;;;;;;27.55;15.07;;;11.70;99.90;;;;;;4996052;28;20046;-80
2022/11/11 06:43:18;;;;;;;27.67;14.88;;;11.70;99.90;;;;;;4994858;28;20053;-80
2022/11/11 06:45:45;;;;;;;19.83;14.32;;;11.70;99.90;;;;;;4995909;28;20057;-80
2022/11/11 06:48:11;;;;;;;26.33;16.10;;;11.70;99.90;;;;;;4994844;28;20477;-80
2022/11/11 06:50:37;;;;;;;23.92;15.15;;;11.70;99.90;;;;;;4995439;28;20045;-79
2022/11/11 06:53:07;;;;;;;23.63;13.77;;;11.70;99.90;;;;;;5010209;28;20141;-79
2022/11/11 06:55:33;;;;;;;22.85;16.02;;;11.70;99.90;;;;;;4993864;28;20061;-79
2022/11/11 06:58:09;;;;;;;22.45;14.48;;;11.70;99.90;;;;;;4994356;28;20054;-78
2022/11/11 07:00:36;;;;;;;26.10;16.35;;;11.70;99.90;;;;;;4995411;28;20172;-77
2022/11/11 07:03:02;;;;;;;22.08;15.40;;;11.70;99.90;;;;;;4995496;28;20046;-78
2022/11/11 07:05:28;;;;;;;23.67;16.52;;;11.70;99.90;;;;;;4977991;28;20054;-76
2022/11/11 07:07:54;;;;;;;20.33;14.60;;;11.70;99.90;;;;;;4993960;28;20509;-78
2022/11/11 07:10:20;;;;;;;22.02;15.13;;;11.70;99.90;;;;;;4995331;28;20039;-77
2022/11/11 07:12:46;;;;;;;21.30;14.05;;;11.70;99.90;;;;;;4995330;28;20090;-77
2022/11/11 07:15:12;;;;;;;23.45;13.88;;;11.70;99.90;;;;;;4994150;28;20061;-77
2022/11/11 07:17:37;;;;;;;23.92;14.68;;;11.70;99.90;;;;;;4993637;28;20082;-76
2022/11/11 07:20:04;;;;;;;31.02;14.30;;;11.70;99.90;;;;;;4995213;28;20097;-77
2022/11/11 07:22:29;;;;;;;20.85;14.05;;;11.70;99.90;;;;;;4994938;28;20128;-77
2022/11/11 07:24:55;;;;;;;22.27;14.82;;;11.70;99.90;;;;;;4994445;28;20455;-77
2022/11/11 07:27:21;;;;;;;22.73;14.77;;;11.70;99.90;;;;;;4993533;28;20046;-77
2022/11/11 07:29:47;;;;;;;16.98;13.13;;;11.70;99.90;;;;;;4995156;28;20042;-77
2022/11/11 07:32:16;;;;;;;28.73;15.70;;;11.80;99.90;;;;;;4978027;28;20105;-77
2022/11/11 07:34:43;;;;;;;20.15;13.60;;;11.80;99.90;;;;;;4995254;28;20125;-77
2022/11/11 07:37:09;;;;;;;26.33;13.93;;;11.80;99.90;;;;;;4994831;28;20057;-77
2022/11/11 07:39:35;;;;;;;20.42;13.02;;;11.80;99.90;;;;;;4994788;28;20065;-78
2022/11/11 07:42:01;;;;;;;23.75;14.60;;;11.80;99.90;;;;;;4977562;28;20411;-77
2022/11/11 07:44:26;;;;;;;21.20;13.40;;;11.80;99.90;;;;;;4994010;28;20128;-77
2022/11/11 07:46:52;;;;;;;23.73;14.15;;;11.90;99.90;;;;;;4994831;28;20043;-78
2022/11/11 07:49:18;;;;;;;18.63;12.77;;;11.80;99.90;;;;;;4994214;28;20050;-80
2022/11/11 07:51:43;;;;;;;21.88;14.07;;;11.90;99.90;;;;;;4994969;28;20065;-79
2022/11/11 07:54:09;;;;;;;19.52;12.93;;;11.90;99.90;;;;;;4994408;28;20050;-80
2022/11/11 07:56:35;;;;;;;22.95;13.25;;;11.90;99.90;;;;;;4994560;28;20046;-79
2022/11/11 07:59:00;;;;;;;19.35;11.65;;;11.90;99.90;;;;;;4994670;28;20173;-79
2022/11/11 08:01:26;;;;;;;21.83;12.73;;;11.90;99.90;;;;;;4994493;28;20139;-78
2022/11/11 08:03:52;;;;;;;20.67;13.88;;;11.90;99.90;;;;;;4994521;28;20058;-78
2022/11/11 08:06:19;;;;;;;19.83;13.35;;;11.90;99.90;;;;;;4993396;28;20057;-78
2022/11/11 08:08:46;;;;;;;20.45;13.18;;;11.90;99.90;;;;;;4994230;28;20117;-78
2022/11/11 08:11:12;;;;;;;21.65;13.00;;;11.90;99.90;;;;;;4994186;28;20054;-78
2022/11/11 08:13:41;;;;;;;22.52;13.50;;;11.90;99.90;;;;;;4994198;28;20589;-77
2022/11/11 08:16:11;;;;;;;24.45;12.50;;;11.90;99.90;;;;;;4992875;28;20491;-78
2022/11/11 08:18:37;;;;;;;17.55;11.52;;;11.90;99.90;;;;;;4994611;28;20069;-78
2022/11/11 08:21:04;;;;;;;18.23;11.40;;;12.00;99.90;;;;;;4994506;28;20400;-79
2022/11/11 08:23:33;;;;;;;18.98;11.90;;;12.00;99.90;;;;;;4994461;28;20054;-78
2022/11/11 08:26:04;;;;;;;18.80;11.38;;;12.00;99.90;;;;;;4993993;28;20082;-78
2022/11/11 08:28:31;;;;;;;19.17;11.52;;;12.00;99.90;;;;;;4993824;28;20054;-77
2022/11/11 08:30:59;;;;;;;18.25;11.55;;;12.00;99.90;;;;;;4993949;28;20050;-78
2022/11/11 08:33:25;;;;;;;17.75;12.23;;;12.00;99.90;;;;;;4994316;28;20444;-78
2022/11/11 08:35:53;;;;;;;26.27;13.05;;;12.10;99.90;;;;;;4993938;28;20046;-78
2022/11/11 08:38:22;;;;;;;18.85;12.23;;;12.10;99.90;;;;;;4993856;28;20077;-78
2022/11/11 08:40:49;;;;;;;19.70;13.00;;;12.10;99.90;;;;;;4994036;28;20116;-77
2022/11/11 08:43:14;;;;;;;16.70;11.85;;;12.10;99.90;;;;;;4993611;28;20495;-78
2022/11/11 08:45:40;;;;;;;22.27;12.48;;;12.10;99.90;;;;;;5009276;28;20050;-77
2022/11/11 08:48:09;;;;;;;17.50;11.68;;;12.20;99.90;;;;;;4992874;28;20109;-77
2022/11/11 08:50:36;;;;;;;19.55;12.38;;;12.20;99.90;;;;;;4992218;28;20050;-77
2022/11/11 08:53:02;;;;;;;15.95;11.07;;;12.20;99.90;;;;;;4993721;28;20069;-78
2022/11/11 08:55:28;;;;;;;17.67;11.63;;;12.20;99.90;;;;;;5008545;28;20054;-78
2022/11/11 08:58:02;;;;;;;19.75;12.38;;;12.20;99.90;;;;;;4993852;28;20080;-79
2022/11/11 09:00:27;;;;;;;17.98;11.65;;;12.20;99.90;;;;;;4993739;28;20046;-78
2022/11/11 09:02:53;;;;;;;13.70;10.88;;;12.20;99.90;;;;;;4992284;28;20523;-78
2022/11/11 09:05:19;;;;;;;15.20;11.10;;;12.20;99.90;;;;;;4993632;28;20046;-79
2022/11/11 09:07:45;;;;;;;18.80;11.52;;;12.20;99.90;;;;;;4993144;28;20103;-78
2022/11/11 09:10:11;;;;;;;17.60;11.95;;;12.20;99.90;;;;;;4992936;28;20046;-79
2022/11/11 09:12:36;;;;;;;14.95;12.40;;;12.20;99.90;;;;;;4993560;28;20089;-77
2022/11/11 09:15:02;;;;;;;20.30;11.15;;;12.20;99.90;;;;;;4992945;28;20062;-77
2022/11/11 09:17:28;;;;;;;22.83;11.32;;;12.30;99.90;;;;;;4992114;28;20046;-78
2022/11/11 09:19:54;;;;;;;15.65;10.73;;;12.30;99.90;;;;;;4992139;28;20046;-78
2022/11/11 09:22:19;;;;;;;14.75;10.73;;;12.30;99.90;;;;;;4993474;28;20038;-77
2022/11/11 09:24:46;;;;;;;14.25;10.13;;;12.30;99.90;;;;;;4993717;28;20475;-78
2022/11/11 09:27:11;;;;;;;16.20;11.10;;;12.30;99.90;;;;;;4992961;28;20057;-77
2022/11/11 09:29:37;;;;;;;17.40;10.75;;;12.30;99.90;;;;;;4992965;28;20050;-77
2022/11/11 09:32:03;;;;;;;14.82;10.15;;;12.30;99.90;;;;;;4992596;28;20049;-77
2022/11/11 09:34:29;;;;;;;16.58;11.00;;;12.40;99.90;;;;;;4991762;28;20101;-78
2022/11/11 09:36:54;;;;;;;17.83;11.15;;;12.30;99.90;;;;;;4992949;28;20050;-78
2022/11/11 09:39:20;;;;;;;16.25;11.05;;;12.30;99.90;;;;;;4992997;28;20042;-79
2022/11/11 09:42:07;;;;;;;19.33;11.85;;;12.30;99.90;;;;;;4993049;28;20043;-77
2022/11/11 09:44:45;;;;;;;15.82;10.05;;;12.30;99.90;;;;;;4992803;28;20435;-77
2022/11/11 09:47:41;;;;;;;17.85;11.02;;;12.40;99.90;;;;;;5008045;28;20050;-78
2022/11/11 09:50:24;;;;;;;17.90;9.90;;;12.40;99.90;;;;;;4992881;28;20050;-78
2022/11/11 09:53:01;;;;;;;14.98;10.77;;;12.40;99.90;;;;;;4992522;28;20060;-78
2022/11/11 09:55:49;;;;;;;15.10;11.00;;;12.40;99.90;;;;;;4993140;28;20058;-78
2022/11/11 09:58:20;;;;;;;11.88;9.57;;;12.50;99.90;;;;;;4992099;28;20058;-77
2022/11/11 10:00:50;;;;;;;14.00;9.88;;;12.50;99.90;;;;;;4992580;28;20053;-79
2022/11/11 10:03:20;;;;;;;16.35;10.00;;;12.40;99.90;;;;;;4991907;28;20049;-78
2022/11/11 10:06:01;;;;;;;15.88;10.40;;;12.50;99.90;;;;;;4992369;28;20053;-77
2022/11/11 10:08:28;;;;;;;13.93;11.27;;;12.50;99.90;;;;;;4993087;28;20070;-77
2022/11/11 10:11:00;;;;;;;12.10;8.98;;;12.50;99.90;;;;;;4991024;28;20034;-77
2022/11/11 10:13:34;;;;;;;20.17;10.93;;;12.60;99.90;;;;;;4992583;28;20069;-77
2022/11/11 10:16:14;;;;;;;12.73;9.40;;;12.50;99.90;;;;;;4991496;28;20057;-78
2022/11/11 10:18:58;;;;;;;14.73;9.80;;;12.60;99.90;;;;;;4992968;28;20046;-78
2022/11/11 10:21:51;;;;;;;14.40;11.02;;;12.60;99.90;;;;;;4992776;28;20043;-79
2022/11/11 10:24:27;;;;;;;14.23;9.13;;;12.50;99.90;;;;;;4982900;28;20054;-79
2022/11/11 10:26:52;;;;;;;12.48;8.90;;;12.60;99.90;;;;;;4992832;28;20050;-78
2022/11/11 10:29:21;;;;;;;17.42;9.60;;;12.60;99.90;;;;;;4993141;28;20081;-79
2022/11/11 10:32:02;;;;;;;14.95;10.27;;;12.60;99.90;;;;;;4996244;28;20042;-79
2022/11/11 10:34:33;;;;;;;16.13;9.05;;;12.60;99.90;;;;;;4994694;28;20138;-77
2022/11/11 10:37:00;;;;;;;13.25;8.82;;;12.60;99.90;;;;;;4995823;28;20125;-78
2022/11/11 10:39:47;;;;;;;15.10;8.73;;;12.60;99.90;;;;;;4995925;28;20047;-77
2022/11/11 10:42:16;;;;;;;13.57;8.75;;;12.70;99.90;;;;;;4996231;28;20077;-77
2022/11/11 10:44:43;;;;;;;12.10;8.43;;;12.70;99.90;;;;;;4994756;28;20429;-78
2022/11/11 10:47:34;;;;;;;11.70;9.30;;;12.70;99.90;;;;;;4994962;28;20085;-78
2022/11/11 10:50:25;;;;;;;12.90;9.25;;;12.80;99.90;;;;;;4994743;28;20081;-76
2022/11/11 10:52:58;;;;;;;15.18;9.32;;;12.90;99.90;;;;;;5010938;28;20493;-77
2022/11/11 10:55:34;;;;;;;15.25;9.23;;;12.90;99.90;;;;;;4995068;28;20084;-77
2022/11/11 10:58:07;;;;;;;14.45;9.48;;;12.90;99.90;;;;;;4996161;28;20117;-77
2022/11/11 11:00:34;;;;;;;12.18;8.32;;;13.00;99.90;;;;;;4995501;28;20488;-76
2022/11/11 11:03:14;;;;;;;19.50;9.88;;;13.00;99.90;;;;;;4995496;28;20068;-81
2022/11/11 11:06:02;;;;;;;12.38;9.20;;;13.00;99.90;;;;;;4978253;28;20050;-74
2022/11/11 11:08:50;;;;;;;15.23;9.13;;;13.00;99.90;;;;;;4995623;28;20057;-78
2022/11/11 11:11:22;;;;;;;13.65;10.00;;;13.10;99.90;;;;;;4995210;28;20046;-78
2022/11/11 11:13:54;;;;;;;15.00;9.52;;;13.10;99.90;;;;;;4995520;28;20539;-76
2022/11/11 11:16:25;;;;;;;11.73;8.48;;;13.10;99.90;;;;;;4995609;28;20054;-78
2022/11/11 11:19:16;;;;;;;14.30;8.63;;;13.20;99.90;;;;;;4995842;28;20088;-76
2022/11/11 11:21:55;;;;;;;12.02;7.78;;;13.20;99.90;;;;;;4994514;28;20046;-76
2022/11/11 11:24:30;;;;;;;12.50;7.78;;;13.40;99.90;;;;;;4995094;28;20057;-76
2022/11/11 11:27:02;;;;;;;13.75;8.98;;;13.40;99.90;;;;;;4995236;28;20050;-76
2022/11/11 11:29:34;;;;;;;15.10;9.38;;;13.40;99.90;;;;;;4994270;28;20042;-76
2022/11/11 11:32:22;;;;;;;12.65;8.73;;;13.40;99.90;;;;;;4995121;28;20050;-77
2022/11/11 11:34:50;;;;;;;10.35;7.65;;;13.40;99.90;;;;;;4993954;28;20469;-77
2022/11/11 11:37:18;;;;;;;14.13;8.60;;;13.50;99.90;;;;;;4995552;28;20077;-77
2022/11/11 11:39:44;;;;;;;12.38;8.32;;;13.50;99.90;;;;;;4994978;28;20553;-76
2022/11/11 11:42:30;;;;;;;11.82;7.03;;;13.50;99.90;;;;;;4995315;28;20053;-77
2022/11/11 11:44:56;;;;;;;11.73;8.63;;;13.40;99.90;;;;;;4994460;28;20141;-77
2022/11/11 11:47:33;;;;;;;12.85;8.38;;;13.40;99.90;;;;;;4995391;28;20117;-76
2022/11/11 11:50:08;;;;;;;13.32;8.18;;;13.40;99.90;;;;;;4994434;28;20130;-77
2022/11/11 11:52:56;;;;;;;14.15;7.88;;;13.50;99.90;;;;;;4993928;28;20130;-77
2022/11/11 11:55:27;;;;;;;14.45;8.10;;;13.50;99.90;;;;;;4994799;28;20042;-77
2022/11/11 11:57:54;;;;;;;10.70;7.45;;;13.50;99.90;;;;;;4995215;28;20046;-77
2022/11/11 12:00:21;;;;;;;14.35;7.28;;;13.50;99.90;;;;;;4993779;28;20422;-77
2022/11/11 12:03:11;;;;;;;9.15;6.93;;;13.50;99.90;;;;;;4994360;28;20049;-77
2022/11/11 12:05:42;;;;;;;11.13;7.75;;;13.50;99.90;;;;;;4993713;28;20053;-76
2022/11/11 12:08:36;;;;;;;10.20;6.78;;;13.40;99.90;;;;;;4994637;28;20085;-76
2022/11/11 12:11:11;;;;;;;13.15;8.85;;;13.40;99.90;;;;;;5009321;28;20046;-76
2022/11/11 12:14:07;;;;;;;10.15;7.28;;;13.40;99.90;;;;;;4994677;28;20085;-77
2022/11/11 12:16:42;;;;;;;11.52;7.70;;;13.40;99.90;;;;;;4993041;28;20058;-78
2022/11/11 12:19:32;;;;;;;13.70;8.75;;;13.40;99.90;;;;;;4994224;28;20094;-76
2022/11/11 12:22:11;;;;;;;11.77;8.52;;;13.40;99.90;;;;;;4993140;28;20192;-77
2022/11/11 12:24:40;;;;;;;13.27;7.97;;;13.40;99.90;;;;;;4993121;28;20152;-76
2022/11/11 12:27:44;;;;;;;10.73;7.28;;;13.30;99.90;;;;;;4994061;28;20125;-76
2022/11/11 12:30:20;;;;;;;;;;;13.30;99.90;;;;;;4995039;28;20061;-76
2022/11/11 12:33:08;;;;;;;10.40;6.82;;;13.20;99.90;;;;;;4993705;28;20061;-77
2022/11/11 12:35:59;;;;;;;11.18;7.30;;;13.20;99.90;;;;;;4993626;28;20414;-76
2022/11/11 12:38:53;;;;;;;12.02;8.13;;;13.20;99.90;;;;;;4993992;28;20129;-76
2022/11/11 12:41:22;;;;;;;11.98;6.97;;;13.20;99.90;;;;;;4993170;28;20050;-76
2022/11/11 12:44:12;;;;;;;11.77;7.53;;;13.20;99.90;;;;;;4993414;28;20129;-76
2022/11/11 12:47:23;;;;;;;11.73;8.15;;;13.20;99.90;;;;;;4993127;28;20042;-76
2022/11/11 12:49:57;;;;;;;11.13;7.78;;;13.20;99.90;;;;;;4994169;28;20090;-76
2022/11/11 12:52:36;;;;;;;11.30;7.70;;;13.20;99.90;;;;;;4993595;28;20080;-76
2022/11/11 12:55:14;;;;;;;10.73;7.22;;;13.20;99.90;;;;;;4995592;28;20057;-76
2022/11/11 12:58:17;;;;;;;11.75;7.28;;;13.20;99.90;;;;;;4995944;28;20081;-76
2022/11/11 13:00:55;;;;;;;14.57;9.30;;;13.20;99.90;;;;;;4995134;28;20054;-78
2022/11/11 13:03:49;;;;;;;12.35;7.80;;;13.20;99.90;;;;;;4993683;28;20317;-78
2022/11/11 13:06:28;;;;;;;14.82;8.00;;;13.20;99.90;;;;;;4993334;28;20050;-78
2022/11/11 13:09:07;;;;;;;10.55;7.45;;;13.20;99.90;;;;;;4995499;28;20086;-78
2022/11/11 13:11:50;;;;;;;9.07;7.53;;;13.20;99.90;;;;;;5005328;28;20394;-77
2022/11/11 13:14:26;;;;;;;;;;;13.20;99.90;;;;;;4997157;28;20054;-79
2022/11/11 13:16:56;;;;;;;10.32;7.53;;;13.10;99.90;;;;;;5008679;28;19961;-78
2022/11/11 13:19:33;;;;;;;10.45;7.88;;;13.20;99.90;;;;;;4992989;28;20085;-79
2022/11/11 13:22:07;;;;;;;13.07;7.57;;;13.10;99.90;;;;;;4993203;28;20053;-80
2022/11/11 13:24:34;;;;;;;10.60;7.05;;;13.10;99.90;;;;;;4993706;28;20050;-78
2022/11/11 13:27:06;;;;;;;12.50;7.68;;;13.10;99.90;;;;;;4993364;28;20045;-78
2022/11/11 13:30:01;;;;;;;11.13;7.65;;;13.00;99.90;;;;;;4976533;28;20053;-78
2022/11/11 13:32:34;;;;;;;10.85;7.78;;;13.00;99.90;;;;;;4992755;28;20468;-78
2022/11/11 13:35:00;;;;;;;;;;;13.00;99.90;;;;;;4992207;28;20050;-78
2022/11/11 13:37:29;;;;;;;12.43;8.40;;;13.00;99.90;;;;;;4992234;28;19937;-78
2022/11/11 13:40:38;;;;;;;10.85;7.75;;;13.00;99.90;;;;;;4992303;28;20046;-78
2022/11/11 13:43:11;;;;;;;11.02;7.63;;;13.00;99.90;;;;;;4992059;28;20053;-79
2022/11/11 13:45:39;;;;;;;;;;;12.90;99.90;;;;;;4992642;28;20057;-78
2022/11/11 13:48:06;;;;;;;12.65;8.18;;;12.90;99.90;;;;;;4992903;28;20386;-78
2022/11/11 13:50:37;;;;;;;10.75;8.05;;;12.90;99.90;;;;;;4991574;28;20101;-78
2022/11/11 13:53:06;;;;;;;12.63;8.23;;;12.90;99.90;;;;;;4991508;28;20054;-79
2022/11/11 13:55:46;;;;;;;13.15;8.68;;;12.90;99.90;;;;;;4992288;28;20470;-78
2022/11/11 13:58:26;;;;;;;12.30;7.78;;;12.90;99.90;;;;;;4992914;28;20079;-78
2022/11/11 14:01:05;;;;;;;11.70;7.70;;;12.90;99.90;;;;;;4993161;28;20117;-78